Coscoshipping Thames — VRQP6 — position and weather

sailwx.info

Track history (hours):
 
Tides and Currents Weather Stations Pressure Air Temp Water Temp Dewpoint Dewpoint Depression Visibility Wind Speed Wind Dir Waves Ship Positions

Coscoshipping Thames

Last reported at 2018-Jul-16 11:40 UTC. Time now 2018-Jul-17 07:29 UTC.
Position S 26°10' W 048°19'.

Length 300 m; draft 10.1 m.

Type: Ship (hazmat cat A). MMSI: 477333900.

Date/timePositionNaut miles runAvg speedWind from/ knotsBaromVisibWave heightAir tempDewpointWater temp
2018-Jul-16 11:40S 26°10' W 048°19'317.5
2018-Jul-16 11:30S 26°08' W 048°19'917.8
2018-Jul-16 11:00S 25°59' W 048°17'917.9
2018-Jul-16 10:31S 25°50' W 048°17'1018.0
2018-Jul-16 09:58S 25°40' W 048°16'612.2
2018-Jul-16 09:31S 25°35' W 048°19'11 0.6
2018-Jul-15 14:48S 25°37' W 048°07'0 0.4
2018-Jul-15 14:06S 25°37' W 048°07'0 0.4
2018-Jul-15 13:56S 25°37' W 048°07'0 0.3
2018-Jul-15 13:30S 25°37' W 048°07'0 0.6
2018-Jul-15 13:00S 25°37' W 048°07'0 0.5
2018-Jul-15 12:29S 25°37' W 048°07'0 0.5
2018-Jul-15 12:00S 25°37' W 048°08'0 0.5
2018-Jul-15 11:30S 25°37' W 048°08'1 0.7
2018-Jul-15 10:24S 25°37' W 048°07'1 1.4
2018-Jul-15 09:56S 25°37' W 048°06'0 0.7
2018-Jul-15 09:30S 25°37' W 048°06'0 0.5
2018-Jul-15 08:57S 25°36' W 048°06'0 0.3
2018-Jul-15 08:30S 25°36' W 048°06'0 0.9
2018-Jul-15 08:00S 25°36' W 048°05'2 3.6
2018-Jul-15 07:30S 25°36' W 048°03'3 5.6
2018-Jul-15 07:00S 25°35' W 048°00'3 5.6
2018-Jul-15 06:27S 25°35' W 047°57'2 5.6
2018-Jul-15 06:00S 25°34' W 047°54'3 5.7
2018-Jul-15 05:30S 25°33' W 047°51'3 6.3
2018-Jul-15 05:00S 25°32' W 047°48'714.0
2018-Jul-15 04:30S 25°30' W 047°41'816.9
2018-Jul-15 04:00S 25°25' W 047°34'916.9
2018-Jul-15 03:30S 25°19' W 047°27'816.9
2018-Jul-15 03:00S 25°13' W 047°20'816.9
2018-Jul-15 02:30S 25°07' W 047°14'816.7
2018-Jul-15 02:01S 25°01' W 047°07'917.1
2018-Jul-15 01:30S 24°55' W 046°60'817.0
2018-Jul-15 01:01S 24°49' W 046°53'916.9
2018-Jul-15 00:29S 24°43' W 046°46'816.9
2018-Jul-15 00:00S 24°38' W 046°40'917.5
2018-Jul-14 23:30S 24°31' W 046°33'917.9
2018-Jul-14 23:01S 24°24' W 046°28'917.8
2018-Jul-14 22:30S 24°15' W 046°25'917.8
2018-Jul-14 22:00S 24°07' W 046°24'714.1
2018-Jul-14 21:30S 24°00' W 046°20'3 6.2
2018-Jul-14 21:00S 23°59' W 046°17'0 0.7
2018-Jul-14 20:31S 23°58' W 046°18'0 0.0
2018-Jul-14 19:52S 23°58' W 046°18'0 0.0
2018-Jul-14 19:22S 23°58' W 046°18'0 0.0
2018-Jul-14 18:58S 23°58' W 046°18'0 0.0
2018-Jul-14 18:22S 23°58' W 046°18'0 0.0
2018-Jul-14 17:10S 23°58' W 046°18'0 0.0
2018-Jul-14 16:43S 23°58' W 046°18'0 0.0
2018-Jul-14 16:25S 23°58' W 046°18'0 0.0
2018-Jul-14 15:58S 23°58' W 046°18'0 0.0
2018-Jul-14 15:28S 23°58' W 046°18'0 0.0
2018-Jul-14 14:58S 23°58' W 046°18'0 0.0
2018-Jul-14 14:28S 23°58' W 046°18'0 0.0
2018-Jul-14 13:28S 23°58' W 046°18'0 0.0
2018-Jul-14 12:55S 23°58' W 046°18'0 0.0
2018-Jul-14 12:28S 23°58' W 046°18'0 0.0
2018-Jul-14 11:58S 23°58' W 046°18'0 0.0
2018-Jul-14 11:28S 23°58' W 046°18'0 0.0
2018-Jul-14 10:58S 23°58' W 046°18'0 0.0
2018-Jul-14 10:22S 23°58' W 046°18'0 0.0
2018-Jul-14 09:49S 23°58' W 046°18'0 0.0
2018-Jul-14 09:30S 23°58' W 046°18'0 0.0
2018-Jul-14 08:58S 23°58' W 046°18'0 0.0
2018-Jul-14 08:27S 23°58' W 046°18'0 0.0
2018-Jul-14 07:58S 23°58' W 046°18'0 0.0
2018-Jul-14 07:28S 23°58' W 046°18'0 0.0
2018-Jul-14 06:54S 23°58' W 046°18'0 0.0
2018-Jul-14 06:13S 23°58' W 046°18'0 0.0
2018-Jul-14 05:43S 23°58' W 046°18'0 0.0
2018-Jul-14 05:31S 23°58' W 046°18'0 0.0
2018-Jul-14 04:57S 23°58' W 046°18'0 0.0
2018-Jul-14 04:28S 23°58' W 046°18'0 0.0
2018-Jul-14 03:58S 23°58' W 046°18'0 0.0
2018-Jul-14 03:25S 23°58' W 046°18'0 0.0
2018-Jul-14 02:58S 23°58' W 046°18'0 0.0
2018-Jul-14 02:22S 23°58' W 046°18'0 0.0
2018-Jul-14 01:58S 23°58' W 046°18'0 0.0
2018-Jul-14 01:28S 23°58' W 046°18'0 0.0
2018-Jul-14 00:57S 23°58' W 046°18'0 0.0
2018-Jul-14 00:30S 23°58' W 046°18'0 0.4
2018-Jul-14 00:00S 23°58' W 046°18'2 4.8
2018-Jul-13 23:31S 23°60' W 046°20'4 8.2
2018-Jul-13 23:00S 24°04' W 046°19'4 9.1
2018-Jul-13 22:31S 24°07' W 046°16'815.2
2018-Jul-13 22:00S 24°11' W 046°09'4217.5
2018-Jul-13 19:37S 24°17' W 045°23'819.0
2018-Jul-13 19:13S 24°14' W 045°16'519.1
2018-Jul-13 18:56S 24°11' W 045°11'  
Track history (hours):
 
Tides and Currents Weather Stations Pressure Air Temp Water Temp Dewpoint Dewpoint Depression Visibility Wind Speed Wind Dir Waves Ship Positions

Coscoshipping Thames

Last reported at 2018-Jul-16 11:40 UTC. Time now 2018-Jul-17 07:29 UTC.
Position S 26°10' W 048°19'.

Length 300 m; draft 10.1 m.

Type: Ship (hazmat cat A). MMSI: 477333900.

Date/timePositionNaut miles runAvg speedWind from/ knotsBaromVisibWave heightAir tempDewpointWater temp
2018-Jul-16 11:40S 26°10' W 048°19'317.5
2018-Jul-16 11:30S 26°08' W 048°19'917.8
2018-Jul-16 11:00S 25°59' W 048°17'917.9
2018-Jul-16 10:31S 25°50' W 048°17'1018.0
2018-Jul-16 09:58S 25°40' W 048°16'612.2
2018-Jul-16 09:31S 25°35' W 048°19'11 0.6
2018-Jul-15 14:48S 25°37' W 048°07'0 0.4
2018-Jul-15 14:06S 25°37' W 048°07'0 0.4
2018-Jul-15 13:56S 25°37' W 048°07'0 0.3
2018-Jul-15 13:30S 25°37' W 048°07'0 0.6
2018-Jul-15 13:00S 25°37' W 048°07'0 0.5
2018-Jul-15 12:29S 25°37' W 048°07'0 0.5
2018-Jul-15 12:00S 25°37' W 048°08'0 0.5
2018-Jul-15 11:30S 25°37' W 048°08'1 0.7
2018-Jul-15 10:24S 25°37' W 048°07'1 1.4
2018-Jul-15 09:56S 25°37' W 048°06'0 0.7
2018-Jul-15 09:30S 25°37' W 048°06'0 0.5
2018-Jul-15 08:57S 25°36' W 048°06'0 0.3
2018-Jul-15 08:30S 25°36' W 048°06'0 0.9
2018-Jul-15 08:00S 25°36' W 048°05'2 3.6
2018-Jul-15 07:30S 25°36' W 048°03'3 5.6
2018-Jul-15 07:00S 25°35' W 048°00'3 5.6
2018-Jul-15 06:27S 25°35' W 047°57'2 5.6
2018-Jul-15 06:00S 25°34' W 047°54'3 5.7
2018-Jul-15 05:30S 25°33' W 047°51'3 6.3
2018-Jul-15 05:00S 25°32' W 047°48'714.0
2018-Jul-15 04:30S 25°30' W 047°41'816.9
2018-Jul-15 04:00S 25°25' W 047°34'916.9
2018-Jul-15 03:30S 25°19' W 047°27'816.9
2018-Jul-15 03:00S 25°13' W 047°20'816.9
2018-Jul-15 02:30S 25°07' W 047°14'816.7
2018-Jul-15 02:01S 25°01' W 047°07'917.1
2018-Jul-15 01:30S 24°55' W 046°60'817.0
2018-Jul-15 01:01S 24°49' W 046°53'916.9
2018-Jul-15 00:29S 24°43' W 046°46'816.9
2018-Jul-15 00:00S 24°38' W 046°40'917.5
2018-Jul-14 23:30S 24°31' W 046°33'917.9
2018-Jul-14 23:01S 24°24' W 046°28'917.8
2018-Jul-14 22:30S 24°15' W 046°25'917.8
2018-Jul-14 22:00S 24°07' W 046°24'714.1
2018-Jul-14 21:30S 24°00' W 046°20'3 6.2
2018-Jul-14 21:00S 23°59' W 046°17'0 0.7
2018-Jul-14 20:31S 23°58' W 046°18'0 0.0
2018-Jul-14 19:52S 23°58' W 046°18'0 0.0
2018-Jul-14 19:22S 23°58' W 046°18'0 0.0
2018-Jul-14 18:58S 23°58' W 046°18'0 0.0
2018-Jul-14 18:22S 23°58' W 046°18'0 0.0
2018-Jul-14 17:10S 23°58' W 046°18'0 0.0
2018-Jul-14 16:43S 23°58' W 046°18'0 0.0
2018-Jul-14 16:25S 23°58' W 046°18'0 0.0
2018-Jul-14 15:58S 23°58' W 046°18'0 0.0
2018-Jul-14 15:28S 23°58' W 046°18'0 0.0
2018-Jul-14 14:58S 23°58' W 046°18'0 0.0
2018-Jul-14 14:28S 23°58' W 046°18'0 0.0
2018-Jul-14 13:28S 23°58' W 046°18'0 0.0
2018-Jul-14 12:55S 23°58' W 046°18'0 0.0
2018-Jul-14 12:28S 23°58' W 046°18'0 0.0
2018-Jul-14 11:58S 23°58' W 046°18'0 0.0
2018-Jul-14 11:28S 23°58' W 046°18'0 0.0
2018-Jul-14 10:58S 23°58' W 046°18'0 0.0
2018-Jul-14 10:22S 23°58' W 046°18'0 0.0
2018-Jul-14 09:49S 23°58' W 046°18'0 0.0
2018-Jul-14 09:30S 23°58' W 046°18'0 0.0
2018-Jul-14 08:58S 23°58' W 046°18'0 0.0
2018-Jul-14 08:27S 23°58' W 046°18'0 0.0
2018-Jul-14 07:58S 23°58' W 046°18'0 0.0
2018-Jul-14 07:28S 23°58' W 046°18'0 0.0
2018-Jul-14 06:54S 23°58' W 046°18'0 0.0
2018-Jul-14 06:13S 23°58' W 046°18'0 0.0
2018-Jul-14 05:43S 23°58' W 046°18'0 0.0
2018-Jul-14 05:31S 23°58' W 046°18'0 0.0
2018-Jul-14 04:57S 23°58' W 046°18'0 0.0
2018-Jul-14 04:28S 23°58' W 046°18'0 0.0
2018-Jul-14 03:58S 23°58' W 046°18'0 0.0
2018-Jul-14 03:25S 23°58' W 046°18'0 0.0
2018-Jul-14 02:58S 23°58' W 046°18'0 0.0
2018-Jul-14 02:22S 23°58' W 046°18'0 0.0
2018-Jul-14 01:58S 23°58' W 046°18'0 0.0
2018-Jul-14 01:28S 23°58' W 046°18'0 0.0
2018-Jul-14 00:57S 23°58' W 046°18'0 0.0
2018-Jul-14 00:30S 23°58' W 046°18'0 0.4
2018-Jul-14 00:00S 23°58' W 046°18'2 4.8
2018-Jul-13 23:31S 23°60' W 046°20'4 8.2
2018-Jul-13 23:00S 24°04' W 046°19'4 9.1
2018-Jul-13 22:31S 24°07' W 046°16'815.2
2018-Jul-13 22:00S 24°11' W 046°09'4217.5
2018-Jul-13 19:37S 24°17' W 045°23'819.0
2018-Jul-13 19:13S 24°14' W 045°16'519.1
2018-Jul-13 18:56S 24°11' W 045°11'  

Dump ship's entire track history